Time;durP1;ratioP1;P1;durP2;ratioP2;P2;SDS_P1;SDS_P2;PMS_P1;PMS_P2;Temp;Humidity;BMP_temperature;BMP_pressure;BME280_temperature;BME280_humidity;BME280_pressure;Samples;Min_cycle;Max_cycle;Signal;HPM_P1;HPM_P2
2024/01/15 00:00:49;;;;;;;5.78;1.30;;;;;;;0.36;100.00;99235.28;5001027;28;20037;-78
2024/01/15 00:03:15;;;;;;;8.48;1.45;;;;;;;0.36;100.00;99230.00;4994163;28;20172;-76
2024/01/15 00:05:40;;;;;;;7.18;1.27;;;;;;;0.38;100.00;99223.47;4982697;28;20042;-80
2024/01/15 00:08:07;;;;;;;7.30;1.77;;;;;;;0.41;100.00;99227.47;4979003;28;20541;-76
2024/01/15 00:10:34;;;;;;;13.73;1.73;;;;;;;0.43;100.00;99225.38;4968405;28;20056;-78
2024/01/15 00:13:00;;;;;;;7.45;1.52;;;;;;;0.43;100.00;99214.84;4983866;28;20555;-78
2024/01/15 00:15:28;;;;;;;5.35;1.48;;;;;;;0.50;100.00;99218.13;4968742;28;20029;-76
2024/01/15 00:17:53;;;;;;;7.72;1.58;;;;;;;0.50;100.00;99220.75;4964417;28;20575;-75
2024/01/15 00:20:19;;;;;;;12.27;1.52;;;;;;;0.46;100.00;99217.78;4984513;28;20045;-75
2024/01/15 00:22:45;;;;;;;6.63;1.77;;;;;;;0.42;100.00;99218.53;5001115;28;20038;-75
2024/01/15 00:25:11;;;;;;;10.75;1.80;;;;;;;0.36;100.00;99214.22;5001882;28;20121;-75
2024/01/15 00:27:37;;;;;;;8.50;1.90;;;;;;;0.36;100.00;99214.22;4959108;28;20046;-77
2024/01/15 00:30:04;;;;;;;8.07;1.85;;;;;;;0.39;100.00;99218.97;4978875;28;20663;-74
2024/01/15 00:32:30;;;;;;;6.30;0.98;;;;;;;0.41;100.00;99224.84;4988579;28;20034;-79
2024/01/15 00:34:57;;;;;;;10.00;1.67;;;;;;;0.45;100.00;99215.41;4990348;28;20498;-78
2024/01/15 00:37:23;;;;;;;9.45;1.02;;;;;;;0.48;100.00;99209.66;4989186;28;20034;-78
2024/01/15 00:39:49;;;;;;;;;;;;;;;0.47;100.00;99195.66;5010563;22;20053;-74
2024/01/15 00:42:14;;;;;;;6.70;1.40;;;;;;;0.46;100.00;99194.06;5005375;28;19971;-76
2024/01/15 00:44:40;;;;;;;6.22;1.45;;;;;;;0.44;100.00;99176.94;4979539;28;20070;-75
2024/01/15 00:47:05;;;;;;;8.52;2.08;;;;;;;0.39;100.00;99167.09;5003308;28;20038;-73
2024/01/15 00:49:31;;;;;;;9.52;1.50;;;;;;;0.37;100.00;99174.47;4970227;28;20115;-73
2024/01/15 00:51:57;;;;;;;9.50;1.23;;;;;;;0.39;100.00;99172.38;4980372;28;20052;-73
2024/01/15 00:54:22;;;;;;;8.43;2.00;;;;;;;0.36;100.00;99172.06;5001501;28;20034;-74
2024/01/15 00:56:48;;;;;;;9.48;2.08;;;;;;;0.35;100.00;99158.13;4985833;28;20136;-73
2024/01/15 00:59:17;;;;;;;11.65;1.80;;;;;;;0.35;100.00;99149.41;5001560;28;22113;-74
2024/01/15 01:01:43;;;;;;;14.43;1.50;;;;;;;0.35;100.00;99150.22;4987269;28;20077;-73
2024/01/15 01:04:10;;;;;;;6.82;1.88;;;;;;;0.38;100.00;99151.56;4998274;28;20181;-74
2024/01/15 01:06:35;;;;;;;9.73;1.60;;;;;;;0.38;100.00;99133.13;5004093;28;20507;-74
2024/01/15 01:09:01;;;;;;;10.60;2.10;;;;;;;0.40;100.00;99137.09;4985117;28;20048;-74
2024/01/15 01:11:27;;;;;;;8.95;1.52;;;;;;;0.40;100.00;99125.75;5003225;28;20038;-74
2024/01/15 01:13:57;;;;;;;14.00;2.22;;;;;;;0.44;100.00;99126.88;4984057;28;20145;-74
2024/01/15 01:16:23;;;;;;;9.43;1.33;;;;;;;0.49;100.00;99129.59;4983451;28;20141;-73
2024/01/15 01:18:48;;;;;;;11.13;2.10;;;;;;;0.51;100.00;99127.50;5002539;28;20072;-74
2024/01/15 01:21:14;;;;;;;11.77;2.50;;;;;;;0.56;100.00;99124.16;4999426;28;20543;-74
2024/01/15 01:23:39;;;;;;;10.50;1.92;;;;;;;0.61;100.00;99122.41;5002279;28;20161;-74
2024/01/15 01:26:05;;;;;;;14.50;2.25;;;;;;;0.64;100.00;99111.34;4999565;28;20052;-74
2024/01/15 01:28:31;;;;;;;16.65;2.13;;;;;;;0.69;100.00;99098.25;4996190;28;20026;-74
2024/01/15 01:30:57;;;;;;;12.00;1.63;;;;;;;0.72;100.00;99102.22;4999704;28;20085;-74
2024/01/15 01:33:23;;;;;;;;;;;;;;;0.75;100.00;99097.28;5000857;28;20038;-73
2024/01/15 01:35:49;;;;;;;11.60;1.80;;;;;;;0.78;100.00;99107.31;4999702;28;19924;-73
2024/01/15 01:38:14;;;;;;;8.77;2.28;;;;;;;0.80;100.00;99081.50;5001085;28;20037;-74
2024/01/15 01:40:40;;;;;;;13.45;1.92;;;;;;;0.80;100.00;99086.78;4968418;28;20042;-73
2024/01/15 01:43:06;;;;;;;7.28;2.47;;;;;;;0.76;100.00;99093.59;4984844;28;20033;-74
2024/01/15 01:45:31;;;;;;;8.88;1.38;;;;;;;0.77;100.00;99105.72;4994439;28;20038;-72
2024/01/15 01:47:57;;;;;;;8.75;1.38;;;;;;;0.77;100.00;99099.66;4984742;28;20033;-74
2024/01/15 01:50:23;;;;;;;7.55;1.40;;;;;;;0.78;100.00;99090.72;4999490;28;20569;-73
2024/01/15 01:52:49;;;;;;;11.38;1.92;;;;;;;0.74;100.00;99087.75;5001928;28;20116;-73
2024/01/15 01:55:16;;;;;;;9.07;1.58;;;;;;;0.70;100.00;99091.94;4995153;28;20045;-73
2024/01/15 01:57:42;;;;;;;11.07;1.80;;;;;;;0.66;100.00;99093.47;4984315;28;20045;-74
2024/01/15 02:00:08;;;;;;;9.73;1.77;;;;;;;0.65;100.00;99094.50;4968257;28;20030;-74
2024/01/15 02:02:38;;;;;;;4.15;1.20;;;;;;;0.67;100.00;99084.50;4996432;28;20038;-72
2024/01/15 02:05:05;;;;;;;13.13;1.60;;;;;;;0.65;100.00;99075.25;4978691;28;20046;-74
2024/01/15 02:07:34;;;;;;;9.25;1.27;;;;;;;0.66;100.00;99080.28;4979070;28;20034;-73
2024/01/15 02:10:00;;;;;;;4.93;1.23;;;;;;;0.63;100.00;99090.53;5000781;28;20042;-74
2024/01/15 02:12:26;;;;;;;9.98;1.40;;;;;;;0.67;100.00;99086.34;4998899;28;20038;-74
2024/01/15 02:14:51;;;;;;;7.95;1.38;;;;;;;0.68;100.00;99086.13;4984094;28;20049;-73
2024/01/15 02:17:17;;;;;;;6.38;1.65;;;;;;;0.70;100.00;99081.41;4999159;28;20034;-73
2024/01/15 02:19:43;;;;;;;7.15;1.45;;;;;;;0.73;100.00;99075.63;5000384;28;20034;-74
2024/01/15 02:22:09;;;;;;;6.03;1.63;;;;;;;0.73;100.00;99072.19;4949952;28;20047;-73
2024/01/15 02:24:35;;;;;;;7.30;1.35;;;;;;;0.74;100.00;99084.31;4996325;28;20435;-74
2024/01/15 02:27:02;;;;;;;5.85;1.30;;;;;;;0.73;100.00;99077.47;4999727;28;20046;-74
2024/01/15 02:29:27;;;;;;;5.30;1.10;;;;;;;0.74;100.00;99074.56;4995786;28;20034;-74
2024/01/15 02:31:53;;;;;;;10.15;1.20;;;;;;;0.77;100.00;99089.13;4999290;28;20114;-74
2024/01/15 02:34:19;;;;;;;7.22;1.85;;;;;;;0.74;100.00;99079.06;4998116;28;20065;-74
2024/01/15 02:36:44;;;;;;;6.90;1.50;;;;;;;0.71;100.00;99066.38;4979666;28;20048;-72
2024/01/15 02:39:10;;;;;;;8.18;2.10;;;;;;;0.68;100.00;99054.50;4989872;28;20071;-73
2024/01/15 02:41:36;;;;;;;5.18;1.42;;;;;;;0.72;100.00;99068.75;4984254;28;20498;-73
2024/01/15 02:44:02;;;;;;;6.03;1.45;;;;;;;0.76;100.00;99075.16;4999876;28;20034;-73
2024/01/15 02:46:28;;;;;;;2.58;0.95;;;;;;;0.77;100.00;99074.09;5000791;28;20407;-73
2024/01/15 02:48:54;;;;;;;4.72;1.30;;;;;;;0.74;100.00;99087.75;4969789;28;20108;-74
2024/01/15 02:51:20;;;;;;;10.73;2.45;;;;;;;0.75;100.00;99085.94;5003139;28;20041;-74
2024/01/15 02:53:45;;;;;;;7.57;1.50;;;;;;;0.75;100.00;99091.22;5026105;28;20091;-74
2024/01/15 02:56:11;;;;;;;8.38;1.80;;;;;;;0.75;100.00;99097.28;4981475;28;20495;-74
2024/01/15 02:58:37;;;;;;;8.82;1.67;;;;;;;0.74;100.00;99100.94;5007239;28;20087;-74
2024/01/15 03:01:03;;;;;;;7.90;1.08;;;;;;;0.75;100.00;99091.22;5002416;28;20037;-74
2024/01/15 03:03:29;;;;;;;5.75;1.10;;;;;;;0.75;100.00;99094.63;4999842;28;20059;-74
2024/01/15 03:05:55;;;;;;;7.47;1.27;;;;;;;0.79;100.00;99097.56;5001551;28;20443;-74
2024/01/15 03:08:22;;;;;;;11.35;2.05;;;;;;;0.82;100.00;99092.63;5001307;28;20334;-74
2024/01/15 03:10:48;;;;;;;7.90;1.58;;;;;;;0.81;100.00;99096.31;4985707;28;20048;-73
2024/01/15 03:13:14;;;;;;;5.57;1.25;;;;;;;0.80;100.00;99083.34;4986882;28;20030;-74
2024/01/15 03:15:39;;;;;;;8.63;1.08;;;;;;;0.79;100.00;99093.09;4999686;28;20037;-74
2024/01/15 03:18:05;;;;;;;5.63;1.10;;;;;;;0.78;100.00;99091.50;4996961;28;20045;-75
2024/01/15 03:20:32;;;;;;;6.68;1.55;;;;;;;0.76;100.00;99096.22;4995529;28;20030;-76
2024/01/15 03:22:58;;;;;;;;;;;;;;;0.71;100.00;99111.19;4983633;28;20046;-76
2024/01/15 03:25:23;;;;;;;9.80;1.77;;;;;;;0.65;100.00;99091.06;4984821;28;20051;-73
2024/01/15 03:27:49;;;;;;;7.88;1.33;;;;;;;0.61;100.00;99100.50;4986442;28;20053;-76
2024/01/15 03:30:15;;;;;;;5.40;1.80;;;;;;;0.59;100.00;99098.09;4990729;28;20087;-75
2024/01/15 03:32:40;;;;;;;5.82;1.42;;;;;;;0.58;100.00;99096.53;5003527;28;20029;-72
2024/01/15 03:35:07;;;;;;;9.48;1.38;;;;;;;0.55;100.00;99107.56;4998941;28;20041;-72
2024/01/15 03:37:32;;;;;;;9.85;1.75;;;;;;;0.58;100.00;99116.81;5002522;28;20044;-73
2024/01/15 03:39:58;;;;;;;7.85;1.35;;;;;;;0.59;100.00;99111.28;5007755;28;20041;-73
2024/01/15 03:42:24;;;;;;;5.45;1.70;;;;;;;0.58;100.00;99114.16;5002294;28;20034;-72
2024/01/15 03:44:50;;;;;;;5.88;1.52;;;;;;;0.56;100.00;99109.16;4990109;28;20057;-73
2024/01/15 03:47:15;;;;;;;9.52;1.70;;;;;;;0.55;100.00;99102.28;4984705;28;20038;-72
2024/01/15 03:49:43;;;;;;;11.68;1.70;;;;;;;0.54;100.00;99100.66;4991685;28;20033;-73
2024/01/15 03:52:08;;;;;;;10.68;1.88;;;;;;;0.55;100.00;99097.03;5004093;28;20132;-73
2024/01/15 03:54:34;;;;;;;12.13;1.50;;;;;;;0.52;100.00;99114.09;4999421;28;20634;-74
2024/01/15 03:57:00;;;;;;;6.43;1.23;;;;;;;0.52;100.00;99114.09;5005423;28;20777;-74
2024/01/15 03:59:26;;;;;;;15.93;1.83;;;;;;;0.51;100.00;99116.97;4997395;28;20168;-73
2024/01/15 04:01:52;;;;;;;8.98;2.35;;;;;;;0.49;100.00;99129.59;5004585;28;20404;-74
2024/01/15 04:04:18;;;;;;;6.53;1.63;;;;;;;0.49;100.00;99119.06;4995640;28;20089;-73
2024/01/15 04:06:45;;;;;;;9.30;1.33;;;;;;;0.50;100.00;99115.38;5002013;28;20157;-74
2024/01/15 04:09:14;;;;;;;10.68;1.88;;;;;;;0.50;100.00;99121.44;4999058;28;20038;-74
2024/01/15 04:11:40;;;;;;;11.25;2.10;;;;;;;0.51;100.00;99112.50;4984997;28;20037;-74
2024/01/15 04:14:06;;;;;;;6.97;1.55;;;;;;;0.52;100.00;99121.19;4983250;28;20512;-74
2024/01/15 04:16:32;;;;;;;12.85;1.88;;;;;;;0.52;100.00;99106.19;4986852;28;20029;-74
2024/01/15 04:18:58;;;;;;;8.77;1.85;;;;;;;0.52;100.00;99119.34;4988582;28;20065;-74
2024/01/15 04:21:23;;;;;;;10.30;1.55;;;;;;;0.53;100.00;99120.16;4991515;28;20670;-74
2024/01/15 04:23:49;;;;;;;15.57;2.95;;;;;;;0.54;100.00;99122.56;4975411;28;20069;-73
2024/01/15 04:26:15;;;;;;;11.25;1.70;;;;;;;0.53;100.00;99125.41;5001571;28;20034;-74
2024/01/15 04:28:40;;;;;;;7.63;1.48;;;;;;;0.53;100.00;99130.69;4981900;28;20034;-73
2024/01/15 04:31:06;;;;;;;13.60;1.63;;;;;;;0.51;100.00;99132.78;4989765;28;20440;-74
2024/01/15 04:33:31;;;;;;;13.02;2.17;;;;;;;0.52;100.00;99129.09;5003530;28;20517;-74
2024/01/15 04:36:01;;;;;;;6.35;1.42;;;;;;;0.53;100.00;99130.69;5009621;28;20092;-74
2024/01/15 04:38:27;;;;;;;16.95;2.35;;;;;;;0.52;100.00;99123.84;4983403;28;20029;-74
2024/01/15 04:40:52;;;;;;;11.90;1.63;;;;;;;0.51;100.00;99122.25;4984216;28;20459;-74
2024/01/15 04:43:19;;;;;;;10.20;1.90;;;;;;;0.55;100.00;99128.63;5003409;28;20069;-74
2024/01/15 04:45:44;;;;;;;15.68;2.45;;;;;;;0.53;100.00;99113.03;5008169;28;21307;-75
2024/01/15 04:48:10;;;;;;;13.50;1.88;;;;;;;0.60;100.00;99130.50;5010013;28;20061;-74
2024/01/15 04:50:36;;;;;;;12.07;1.83;;;;;;;0.62;100.00;99129.25;4972178;28;20851;-74
2024/01/15 04:53:02;;;;;;;12.98;1.65;;;;;;;0.63;100.00;99124.78;5001771;28;20056;-74
2024/01/15 04:55:27;;;;;;;11.95;1.73;;;;;;;0.65;100.00;99120.06;4985304;28;20080;-74
2024/01/15 04:57:53;;;;;;;10.65;1.98;;;;;;;0.63;100.00;99125.56;4990632;28;20033;-74
2024/01/15 05:00:19;;;;;;;11.88;1.92;;;;;;;0.60;100.00;99112.88;5001044;28;20073;-74
2024/01/15 05:02:44;;;;;;;15.50;1.58;;;;;;;0.61;100.00;99114.50;4986279;28;20424;-74
2024/01/15 05:05:10;;;;;;;8.80;1.70;;;;;;;0.61;100.00;99127.66;4983018;28;20041;-74
2024/01/15 05:07:36;;;;;;;7.65;1.70;;;;;;;0.55;100.00;99118.09;4982183;28;20145;-74
2024/01/15 05:10:02;;;;;;;11.80;1.40;;;;;;;0.54;100.00;99121.75;4964031;28;20042;-74
2024/01/15 05:12:28;;;;;;;18.88;2.70;;;;;;;0.55;100.00;99126.00;5003231;28;20092;-74
2024/01/15 05:14:53;;;;;;;12.15;1.52;;;;;;;0.58;100.00;99124.69;5004973;28;20519;-74
2024/01/15 05:17:19;;;;;;;10.27;1.95;;;;;;;0.60;100.00;99115.50;4999198;28;20026;-73
2024/01/15 05:19:45;;;;;;;13.32;1.77;;;;;;;0.60;100.00;99119.97;5006110;28;20489;-73
2024/01/15 05:22:10;;;;;;;13.65;2.75;;;;;;;0.59;100.00;99124.44;5008047;28;20038;-73
2024/01/15 05:24:36;;;;;;;15.63;1.85;;;;;;;0.59;100.00;99121.81;5008164;28;20451;-73
2024/01/15 05:27:03;;;;;;;9.45;1.52;;;;;;;0.61;100.00;99126.84;5010396;28;20036;-74
2024/01/15 05:29:29;;;;;;;11.70;2.08;;;;;;;0.62;100.00;99116.06;5004197;28;20042;-74
2024/01/15 05:31:55;;;;;;;16.38;2.17;;;;;;;0.65;100.00;99118.22;4989953;28;20048;-74
2024/01/15 05:34:20;;;;;;;13.35;2.35;;;;;;;0.65;100.00;99115.56;4992088;28;20042;-74
2024/01/15 05:36:47;;;;;;;14.15;1.67;;;;;;;0.70;100.00;99131.47;4975926;28;20041;-73
2024/01/15 05:39:13;;;;;;;14.40;2.00;;;;;;;0.70;100.00;99120.13;5002696;28;20083;-74
2024/01/15 05:41:39;;;;;;;11.20;1.98;;;;;;;0.65;100.00;99125.31;5004961;28;20037;-74
2024/01/15 05:44:05;;;;;;;14.50;2.00;;;;;;;0.65;100.00;99130.59;5002618;28;20517;-73
2024/01/15 05:46:30;;;;;;;10.00;1.80;;;;;;;0.63;100.00;99130.84;4989109;28;20046;-73
2024/01/15 05:48:57;;;;;;;7.45;1.48;;;;;;;0.62;100.00;99123.97;5005536;28;20034;-74
2024/01/15 05:51:22;;;;;;;10.77;1.92;;;;;;;0.60;100.00;99131.31;4982336;28;20030;-73
2024/01/15 05:53:48;;;;;;;10.93;2.25;;;;;;;0.61;100.00;99121.56;5006560;28;20038;-73
2024/01/15 05:56:13;;;;;;;8.68;1.52;;;;;;;0.61;100.00;99132.09;5004249;28;20030;-73
2024/01/15 05:58:40;;;;;;;14.73;1.92;;;;;;;0.60;100.00;99135.78;4987263;28;20047;-73
2024/01/15 06:01:05;;;;;;;15.05;1.90;;;;;;;0.61;100.00;99132.94;4986939;28;20046;-73
2024/01/15 06:03:31;;;;;;;16.58;2.28;;;;;;;0.64;100.00;99136.91;5002694;28;20097;-75
2024/01/15 06:05:57;;;;;;;14.32;2.05;;;;;;;0.67;100.00;99118.75;5004328;28;20056;-73
2024/01/15 06:08:23;;;;;;;19.88;3.78;;;;;;;0.71;100.00;99133.03;5005918;28;20069;-73
2024/01/15 06:10:48;;;;;;;10.43;1.48;;;;;;;0.76;100.00;99130.50;4991747;28;20514;-73
2024/01/15 06:13:14;;;;;;;13.50;1.90;;;;;;;0.77;100.00;99136.56;5003029;28;20069;-73
2024/01/15 06:15:40;;;;;;;9.68;2.00;;;;;;;0.78;100.00;99131.03;5005788;28;20042;-72
2024/01/15 06:18:06;;;;;;;11.18;2.05;;;;;;;0.79;100.00;99140.53;5003565;28;20029;-74
2024/01/15 06:20:31;;;;;;;8.95;1.73;;;;;;;0.81;100.00;99132.38;4998060;28;20037;-74
2024/01/15 06:22:57;;;;;;;12.88;1.25;;;;;;;0.80;100.00;99131.56;5010659;28;20106;-74
2024/01/15 06:25:23;;;;;;;9.60;1.90;;;;;;;0.80;100.00;99143.97;4988171;28;20042;-74
2024/01/15 06:27:48;;;;;;;14.77;1.90;;;;;;;0.75;100.00;99139.44;4992298;28;20453;-74
2024/01/15 06:30:14;;;;;;;11.50;2.10;;;;;;;0.75;100.00;99134.16;4986025;28;20048;-73
2024/01/15 06:32:40;;;;;;;14.50;1.80;;;;;;;0.77;100.00;99133.91;5009310;28;20116;-73
2024/01/15 06:35:06;;;;;;;12.45;1.77;;;;;;;0.77;100.00;99126.81;4991548;28;20140;-73
2024/01/15 06:37:32;;;;;;;10.95;2.10;;;;;;;0.80;100.00;99141.31;5003784;28;20098;-73
2024/01/15 06:59:35;;;;;;;8.98;1.67;;;;;;;0.78;100.00;99144.22;5046605;28;20135;-84
2024/01/15 07:02:02;;;;;;;12.93;1.83;;;;;;;0.77;100.00;99141.81;5005081;28;20033;-87
2024/01/15 07:04:28;;;;;;;10.90;1.95;;;;;;;0.74;100.00;99137.81;5006220;28;20025;-84
2024/01/15 07:06:54;;;;;;;7.63;1.15;;;;;;;0.73;100.00;99133.59;5014153;28;20036;-90
2024/01/15 07:09:21;;;;;;;13.65;1.70;;;;;;;0.73;100.00;99133.59;5015628;28;20043;-89
2024/01/15 07:11:50;;;;;;;8.82;1.33;;;;;;;0.72;100.00;99139.91;5021105;28;20067;-89
2024/01/15 07:14:18;;;;;;;9.50;1.33;;;;;;;0.70;100.00;99142.00;5026126;28;20688;-91
2024/01/15 07:16:47;;;;;;;11.18;1.45;;;;;;;0.68;100.00;99138.03;5051195;28;20045;-92
2024/01/15 07:19:13;;;;;;;9.13;1.27;;;;;;;0.67;100.00;99139.84;5010570;28;20029;-94
2024/01/15 07:21:42;;;;;;;9.07;1.13;;;;;;;0.69;100.00;99148.31;5013845;28;20113;-90
2024/01/15 07:24:09;;;;;;;5.97;1.30;;;;;;;0.64;100.00;99137.69;5005096;28;20087;-91
2024/01/15 07:26:36;;;;;;;11.63;1.10;;;;;;;0.66;100.00;99159.31;4999107;28;20045;-91
2024/01/15 07:29:03;;;;;;;13.23;1.40;;;;;;;0.62;100.00;99150.31;5050993;28;20028;-91
2024/01/15 07:31:29;;;;;;;9.75;1.30;;;;;;;0.62;100.00;99155.59;5009784;28;20494;-93
2024/01/15 07:33:55;;;;;;;18.30;2.42;;;;;;;0.64;100.00;99153.50;5021202;28;20052;-92
2024/01/15 07:36:22;;;;;;;10.20;1.40;;;;;;;0.66;100.00;99159.31;5022317;28;20048;-90
2024/01/15 07:38:49;;;;;;;7.32;1.13;;;;;;;0.68;100.00;99165.16;5038227;28;20040;-90
2024/01/15 07:41:16;;;;;;;;;;;;;;;0.72;100.00;99171.53;5022251;28;20040;-87
2024/01/15 07:43:42;;;;;;;8.50;1.10;;;;;;;0.72;100.00;99173.38;5004204;28;19912;-90
2024/01/15 07:46:08;;;;;;;7.55;1.17;;;;;;;0.66;100.00;99159.31;4999648;28;20511;-92
2024/01/15 07:48:34;;;;;;;7.22;1.17;;;;;;;0.78;100.00;99169.75;5020812;28;20041;-90
2024/01/15 07:51:04;;;;;;;5.40;1.05;;;;;;;0.75;100.00;99170.25;5014287;28;20029;-90
2024/01/15 07:53:31;;;;;;;9.40;0.95;;;;;;;0.74;100.00;99169.44;5002178;28;20051;-91
2024/01/15 07:56:01;;;;;;;12.20;1.52;;;;;;;0.79;100.00;99176.63;5023504;28;20049;-90
2024/01/15 07:58:28;;;;;;;10.63;1.02;;;;;;;0.72;100.00;99170.72;5017900;28;20180;-89
2024/01/15 08:00:56;;;;;;;8.13;0.70;;;;;;;0.70;100.00;99170.19;5039914;28;20040;-91
2024/01/15 08:03:24;;;;;;;5.57;1.10;;;;;;;0.76;100.00;99183.19;5020817;28;20072;-91
2024/01/15 08:05:52;;;;;;;7.15;1.20;;;;;;;0.75;100.00;99184.22;5036614;28;20038;-92
2024/01/15 08:08:21;;;;;;;10.57;0.98;;;;;;;0.69;100.00;99169.38;5000607;28;20037;-90
2024/01/15 08:10:50;;;;;;;6.43;0.90;;;;;;;0.71;100.00;99183.13;5022433;28;20541;-90
2024/01/15 08:13:21;;;;;;;8.95;1.02;;;;;;;0.70;100.00;99184.16;5013521;28;20045;-93
2024/01/15 08:16:00;;;;;;;8.30;0.95;;;;;;;0.69;100.00;99182.56;4994096;28;20049;-93
2024/01/15 08:18:31;;;;;;;8.48;0.90;;;;;;;0.70;100.00;99197.34;5048582;28;20056;-93
2024/01/15 08:20:58;;;;;;;7.55;0.88;;;;;;;0.74;100.00;99185.25;5001956;28;20048;-91
2024/01/15 08:23:27;;;;;;;7.95;1.15;;;;;;;0.76;100.00;99188.47;5023167;28;20040;-92
2024/01/15 08:25:53;;;;;;;5.78;0.85;;;;;;;0.70;100.00;99178.88;5018619;28;20069;-89
2024/01/15 08:28:21;;;;;;;6.47;0.80;;;;;;;0.72;100.00;99187.34;5017932;28;20052;-91
2024/01/15 08:30:47;;;;;;;12.45;1.30;;;;;;;0.76;100.00;99180.56;4999352;28;20034;-89
2024/01/15 08:33:13;;;;;;;6.88;0.90;;;;;;;0.73;100.00;99190.75;5031285;28;20501;-90
2024/01/15 08:35:39;;;;;;;11.40;1.15;;;;;;;0.77;100.00;99205.88;5008865;28;20574;-89
2024/01/15 08:38:06;;;;;;;11.77;1.42;;;;;;;0.80;100.00;99208.00;5022011;28;20039;-89
2024/01/15 08:40:32;;;;;;;4.68;0.85;;;;;;;0.81;100.00;99214.06;5002240;28;20034;-90
2024/01/15 08:42:59;;;;;;;8.10;0.80;;;;;;;0.78;100.00;99212.72;5028661;28;20144;-89
2024/01/15 08:45:25;;;;;;;8.23;0.80;;;;;;;0.78;100.00;99220.63;5015868;28;20038;-91
2024/01/15 08:47:51;;;;;;;5.47;0.63;;;;;;;0.81;100.00;99217.53;5038438;28;20459;-91
2024/01/15 08:50:18;;;;;;;;;;;;;;;0.84;100.00;99224.13;5035112;28;20030;-90
2024/01/15 08:52:43;;;;;;;9.88;1.17;;;;;;;0.82;100.00;99229.66;5028788;28;19913;-91
2024/01/15 08:55:09;;;;;;;7.63;0.95;;;;;;;0.79;100.00;99219.59;5020287;28;20067;-88
2024/01/15 08:57:35;;;;;;;6.03;1.33;;;;;;;0.82;100.00;99228.88;5015324;28;20040;-90
2024/01/15 09:00:02;;;;;;;8.73;1.35;;;;;;;0.75;100.00;99223.75;5026554;28;20040;-90
2024/01/15 09:02:28;;;;;;;;;;;;;;;0.82;100.00;99232.28;5008917;28;20091;-92
2024/01/15 09:04:54;;;;;;;3.50;0.90;;;;;;;0.75;100.00;99229.03;5017234;28;19924;-90
2024/01/15 09:07:20;;;;;;;4.38;1.42;;;;;;;0.73;100.00;99220.53;5001644;28;20070;-81
2024/01/15 09:09:46;;;;;;;6.53;1.38;;;;;;;0.79;100.00;99232.75;5029071;28;20091;-83
2024/01/15 09:12:15;;;;;;;8.65;1.10;;;;;;;0.77;100.00;99221.66;5012176;28;20025;-85
2024/01/15 09:14:41;;;;;;;2.50;1.45;;;;;;;0.78;100.00;99222.47;5019822;28;20040;-86
2024/01/15 09:17:08;;;;;;;4.95;1.02;;;;;;;0.81;100.00;99235.97;5012975;28;20042;-84
2024/01/15 09:19:34;;;;;;;6.32;1.52;;;;;;;0.77;100.00;99211.13;5034782;28;20128;-82
2024/01/15 09:22:00;;;;;;;7.45;1.40;;;;;;;0.76;100.00;99225.34;5004705;28;20035;-84
2024/01/15 09:24:25;;;;;;;11.75;1.23;;;;;;;0.81;100.00;99228.06;5030727;28;20036;-82
2024/01/15 09:26:51;;;;;;;7.90;1.10;;;;;;;0.84;100.00;99236.53;5002474;28;20029;-82
2024/01/15 09:29:18;;;;;;;9.07;1.30;;;;;;;0.87;100.00;99236.81;5033578;28;20033;-89
2024/01/15 09:31:44;;;;;;;7.93;1.55;;;;;;;0.89;100.00;99241.88;5034885;28;20414;-89
2024/01/15 09:34:11;;;;;;;5.72;0.98;;;;;;;0.89;100.00;99240.03;5022032;28;20033;-87
2024/01/15 09:36:43;;;;;;;5.60;1.20;;;;;;;0.92;100.00;99239.53;5007484;28;20041;-88
2024/01/15 09:39:10;;;;;;;7.43;1.30;;;;;;;0.93;100.00;99235.06;4996127;28;20036;-89
2024/01/15 09:41:37;;;;;;;3.63;0.82;;;;;;;0.94;100.00;99241.91;5000742;28;20110;-89
2024/01/15 09:44:04;;;;;;;6.22;1.13;;;;;;;0.97;100.00;99242.25;5011691;28;20063;-87
2024/01/15 09:46:31;;;;;;;6.57;1.05;;;;;;;0.98;100.00;99253.59;5040568;28;20486;-88
2024/01/15 09:48:58;;;;;;;6.13;1.08;;;;;;;0.97;100.00;99249.34;5020231;28;20040;-89
2024/01/15 09:51:24;;;;;;;3.55;0.80;;;;;;;1.00;100.00;99249.66;5017294;28;20048;-90
2024/01/15 09:53:51;;;;;;;6.43;0.90;;;;;;;1.02;100.00;99266.03;5018147;28;20037;-89
2024/01/15 09:56:17;;;;;;;4.55;0.85;;;;;;;1.01;100.00;99264.44;5013541;28;20029;-89
2024/01/15 09:58:44;;;;;;;6.22;1.05;;;;;;;1.04;100.00;99260.53;5015254;28;20693;-91
2024/01/15 10:01:11;;;;;;;8.02;1.02;;;;;;;1.05;100.00;99262.91;5035817;28;20032;-92
2024/01/15 10:03:39;;;;;;;4.93;0.80;;;;;;;1.06;100.00;99288.22;5031152;28;20048;-90
2024/01/15 10:06:08;;;;;;;3.67;0.63;;;;;;;1.04;100.00;99310.63;5025128;28;20033;-89
2024/01/15 10:08:36;;;;;;;3.40;0.73;;;;;;;1.01;100.00;99321.63;5015105;28;20033;-90
2024/01/15 10:11:04;;;;;;;6.22;0.82;;;;;;;0.88;100.00;99320.16;5044673;28;20120;-92
2024/01/15 10:13:30;;;;;;;6.18;0.98;;;;;;;0.80;100.00;99331.84;5020857;28;20041;-93
2024/01/15 10:15:58;;;;;;;7.65;1.05;;;;;;;0.70;100.00;99336.19;4999435;28;20053;-91
2024/01/15 10:18:23;;;;;;;4.32;0.80;;;;;;;0.51;100.00;99322.44;5032114;28;20037;-92
2024/01/15 10:20:50;;;;;;;5.28;0.90;;;;;;;0.47;100.00;99323.94;5050856;28;20040;-85
2024/01/15 10:23:15;;;;;;;3.85;1.10;;;;;;;0.43;100.00;99322.84;5019062;28;20037;-81
2024/01/15 10:25:42;;;;;;;5.35;1.45;;;;;;;0.40;100.00;99315.38;5029162;28;20038;-82
2024/01/15 10:28:08;;;;;;;4.25;1.00;;;;;;;0.36;100.00;99330.09;5016490;28;20032;-84
2024/01/15 10:30:34;;;;;;;3.88;0.93;;;;;;;0.32;100.00;99323.69;5002183;28;20041;-83
2024/01/15 10:33:01;;;;;;;3.47;0.85;;;;;;;0.29;100.00;99330.22;5019079;28;20124;-89
2024/01/15 10:35:31;;;;;;;5.38;1.27;;;;;;;0.25;100.00;99334.34;5003815;28;20030;-89
2024/01/15 10:37:58;;;;;;;2.85;1.10;;;;;;;0.23;100.00;99334.59;5051711;28;20114;-86
2024/01/15 10:40:24;;;;;;;4.68;1.33;;;;;;;0.23;100.00;99337.25;5014329;28;20120;-88
2024/01/15 10:42:50;;;;;;;4.10;1.00;;;;;;;0.26;100.00;99334.13;5022900;28;20041;-81
2024/01/15 10:45:16;;;;;;;5.05;1.33;;;;;;;0.29;100.00;99335.50;5018826;28;20385;-82
2024/01/15 10:47:42;;;;;;;;;;;;;;;0.34;100.00;99340.03;5031435;28;20124;-82
2024/01/15 10:50:09;;;;;;;1.83;0.80;;;;;;;0.33;100.00;99341.88;4998004;28;19930;-82
2024/01/15 10:52:36;;;;;;;3.90;0.95;;;;;;;0.33;100.00;99343.72;5031263;28;20041;-89
2024/01/15 10:55:07;;;;;;;3.70;0.90;;;;;;;0.31;100.00;99343.16;5046511;28;20022;-86
2024/01/15 10:57:33;;;;;;;2.38;0.63;;;;;;;0.25;100.00;99335.16;5015354;28;20029;-84
2024/01/15 10:59:59;;;;;;;4.07;0.60;;;;;;;0.13;100.00;99355.47;5031695;28;20078;-84
2024/01/15 11:02:26;;;;;;;3.03;0.55;;;;;;;0.08;100.00;99350.13;5014323;28;20047;-86
2024/01/15 11:04:52;;;;;;;1.75;0.52;;;;;;;0.03;100.00;99355.28;5044743;28;20498;-87
2024/01/15 11:07:25;;;;;;;2.33;0.50;;;;;;;-0.01;100.00;99359.41;5014476;28;20044;-86
2024/01/15 11:09:51;;;;;;;1.60;0.60;;;;;;;-0.02;100.00;99355.19;5028614;28;20033;-83
2024/01/15 11:12:17;;;;;;;3.20;0.65;;;;;;;-0.06;100.00;99351.44;5006098;28;20056;-82
2024/01/15 11:14:47;;;;;;;;;;;;;;;-0.04;100.00;99352.00;5022525;28;20045;-80
2024/01/15 11:17:14;;;;;;;3.17;0.80;;;;;;;-0.06;100.00;99351.44;5023309;28;19916;-79
2024/01/15 11:19:50;;;;;;;1.65;0.75;;;;;;;-0.07;100.00;99355.06;4996872;28;20064;-82
2024/01/15 11:22:31;;;;;;;2.45;0.70;;;;;;;-0.05;100.00;99351.19;5013951;28;20516;-80
2024/01/15 11:25:02;;;;;;;3.65;0.60;;;;;;;-0.04;100.00;99352.78;5029460;28;20041;-80
2024/01/15 11:27:44;;;;;;;1.33;0.75;;;;;;;-0.05;100.00;99353.03;5036025;28;20572;-83
2024/01/15 11:30:11;;;;;;;3.28;0.85;;;;;;;-0.07;100.00;99347.19;5012380;28;20416;-81
2024/01/15 11:32:42;;;;;;;2.40;0.73;;;;;;;-0.04;100.00;99357.25;5009567;28;20041;-86
2024/01/15 11:35:09;;;;;;;2.90;0.98;;;;;;;-0.03;100.00;99349.13;5007203;28;20048;-83
2024/01/15 11:37:56;;;;;;;2.47;0.90;;;;;;;-0.01;100.00;99362.84;5025752;28;20536;-81
2024/01/15 11:40:45;;;;;;;4.60;1.17;;;;;;;0.01;100.00;99354.72;5007997;28;20131;-81
2024/01/15 11:43:13;;;;;;;2.65;1.15;;;;;;;-0.01;100.00;99360.22;4999003;28;20041;-80
2024/01/15 11:45:40;;;;;;;2.60;1.10;;;;;;;-0.03;100.00;99354.38;5007249;28;20491;-81
2024/01/15 11:48:13;;;;;;;2.20;0.95;;;;;;;-0.01;100.00;99359.41;5023514;28;20033;-83